South Indian Lake, Canada
Current Conditions -  °F | °C
As of 11:00 PM on Tuesday 25 Nov 2014 (Local Time) from CYTH Reporting Station
Clear Clear  
Wind Chill: -22°   Ceiling: Unl
Heat Index: -22°   Visibility: 15mi
Dew Point: -27°   Wind: 2mph
Humidity: 76%   Direction: 280°W
Pressure: 30.24"   Gusts: NA
Location:  56.78°N, 98.93°W
Report Text: CYTH 260500Z 28002KT 15SM SKC M30/M33 A3024 RMK SLP276
Loading
Personal Weather Stations






























Interactive Weather Map New forecast layout! Learn more

10-Day Weather Forecast

Advertisements
Track Severe Weather on mobile